createdAt,value
2022-11-10T00:07:14.281Z,100895.00
2022-11-10T00:17:32.623Z,100915.00
2022-11-10T00:27:51.282Z,100924.00
2022-11-10T00:38:10.174Z,100924.00
2022-11-10T00:48:28.508Z,100934.00
2022-11-10T00:58:46.975Z,100950.00
2022-11-10T01:09:06.273Z,100952.00
2022-11-10T01:19:25.077Z,100964.00
2022-11-10T01:29:44.203Z,100973.00
2022-11-10T01:40:03.314Z,100979.00
2022-11-10T01:50:22.436Z,100981.00
2022-11-10T02:00:41.154Z,100993.00
2022-11-10T02:11:00.148Z,101005.00
2022-11-10T02:21:19.250Z,101014.00
2022-11-10T02:31:38.125Z,101028.00
2022-11-10T02:41:57.298Z,101030.00
2022-11-10T02:52:16.332Z,101042.00
2022-11-10T03:02:35.433Z,101044.00
2022-11-10T03:12:54.590Z,101058.00
2022-11-10T03:23:13.082Z,101078.00
2022-11-10T03:33:32.362Z,101078.00
2022-11-10T03:43:51.480Z,101092.00
2022-11-10T03:54:10.254Z,101101.00
2022-11-10T03:55:16.302Z,101111.00
2022-11-10T04:05:53.930Z,101123.00
2022-11-10T04:16:20.393Z,101135.00
2022-11-10T04:26:47.979Z,101146.00
2022-11-10T04:37:06.739Z,101168.00
2022-11-10T04:47:25.522Z,101178.00
2022-11-10T04:57:44.587Z,101193.00
2022-11-10T05:08:03.613Z,101215.00
2022-11-10T05:18:22.899Z,101223.00
2022-11-10T05:28:41.559Z,101242.00
2022-11-10T05:39:00.658Z,101252.00
2022-11-10T05:49:19.915Z,101258.00
2022-11-10T05:59:38.588Z,101278.00
2022-11-10T06:09:57.908Z,101284.00
2022-11-10T06:20:17.142Z,101295.00
2022-11-10T06:30:35.929Z,101307.00
2022-11-10T06:40:54.741Z,101328.00
2022-11-10T06:51:14.006Z,101337.00
2022-11-10T07:01:32.770Z,101359.00
2022-11-10T07:11:51.608Z,101377.00
2022-11-10T07:22:11.417Z,101398.00
2022-11-10T07:32:29.798Z,101420.00
2022-11-10T07:42:48.692Z,101439.00
2022-11-10T07:53:07.967Z,101447.00
2022-11-10T08:03:26.827Z,101465.00
2022-11-10T08:13:45.961Z,101480.00
2022-11-10T08:24:05.031Z,101494.00
2022-11-10T08:34:23.879Z,101512.00
2022-11-10T08:44:43.117Z,101521.00
2022-11-10T08:55:01.755Z,101527.00
2022-11-10T09:05:20.135Z,101543.00
2022-11-10T09:15:38.740Z,101557.00
2022-11-10T09:25:57.372Z,101555.00
2022-11-10T09:36:15.906Z,101557.00
2022-11-10T09:46:34.954Z,101565.00
2022-11-10T09:56:54.198Z,101581.00
2022-11-10T10:07:12.691Z,101587.00
2022-11-10T10:17:30.614Z,101597.00
2022-11-10T10:27:48.956Z,101601.00
2022-11-10T10:38:07.971Z,101605.00
2022-11-10T10:48:26.880Z,101601.00
2022-11-10T10:58:45.045Z,101595.00
2022-11-10T11:09:04.106Z,101593.00
2022-11-10T11:19:23.217Z,101601.00
2022-11-10T11:29:42.087Z,101614.00
2022-11-10T11:40:14.018Z,101626.00
2022-11-10T11:50:33.051Z,101640.00
2022-11-10T12:00:52.141Z,101644.00
2022-11-10T12:11:11.414Z,101655.00
2022-11-10T12:21:30.219Z,101659.00
2022-11-10T12:31:49.106Z,101657.00
2022-11-10T12:42:08.159Z,101661.00
2022-11-10T12:52:27.237Z,101663.00
2022-11-10T13:02:46.298Z,101663.00
2022-11-10T13:13:05.180Z,101677.00
2022-11-10T13:23:35.420Z,101687.00
2022-11-10T13:33:54.307Z,101691.00
2022-11-10T13:44:13.154Z,101693.00
2022-11-10T13:54:32.189Z,101691.00
2022-11-10T14:04:51.252Z,101697.00
2022-11-10T14:15:10.346Z,101701.00
2022-11-10T14:25:30.526Z,101695.00
2022-11-10T14:35:49.273Z,101695.00
2022-11-10T14:46:08.296Z,101697.00
2022-11-10T14:56:27.544Z,101701.00
2022-11-10T15:06:47.290Z,101701.00
2022-11-10T15:17:06.369Z,101697.00
2022-11-10T15:27:25.320Z,101703.00
2022-11-10T15:37:44.386Z,101712.00
2022-11-10T15:48:03.521Z,101720.00
2022-11-10T15:58:23.076Z,101726.00
2022-11-10T16:08:41.601Z,101728.00
2022-11-10T16:19:00.778Z,101730.00
2022-11-10T16:29:19.602Z,101746.00
2022-11-10T16:39:39.073Z,101769.00
2022-11-10T16:49:57.568Z,101795.00
2022-11-10T17:00:16.655Z,101810.00
2022-11-10T17:10:35.610Z,101818.00
2022-11-10T17:20:56.364Z,101822.00
2022-11-10T17:31:15.186Z,101845.00
2022-11-10T17:41:33.901Z,101856.00
2022-11-10T17:51:52.655Z,101878.00
2022-11-10T18:02:12.931Z,101891.00
2022-11-10T18:12:31.657Z,101895.00
2022-11-10T18:22:50.644Z,101899.00
2022-11-10T18:33:09.935Z,101907.00
2022-11-10T18:43:28.871Z,101901.00
2022-11-10T18:53:48.039Z,101903.00
2022-11-10T19:04:06.935Z,101911.00
2022-11-10T19:14:25.914Z,101923.00
2022-11-10T19:25:06.566Z,101933.00
2022-11-10T19:35:04.532Z,101939.00
2022-11-10T19:45:35.801Z,101940.00
2022-11-10T19:55:54.610Z,101940.00
2022-11-10T20:06:13.660Z,101944.00
2022-11-10T20:16:32.725Z,101944.00
2022-11-10T20:26:51.830Z,101946.00
2022-11-10T20:37:10.939Z,101952.00
2022-11-10T20:47:30.032Z,101946.00
2022-11-10T20:57:48.835Z,101950.00
2022-11-10T21:08:08.139Z,101958.00
2022-11-10T21:18:27.040Z,101966.00
2022-11-10T21:28:45.862Z,101974.00
2022-11-10T21:39:04.780Z,101980.00
2022-11-10T21:49:23.841Z,101989.00
2022-11-10T21:59:42.842Z,102003.00
2022-11-10T22:10:20.565Z,102005.00
2022-11-10T22:20:38.895Z,102003.00
2022-11-10T22:30:58.236Z,102003.00
2022-11-10T22:41:35.451Z,102003.00
2022-11-10T22:51:54.069Z,102013.00
2022-11-10T23:02:14.154Z,102023.00
2022-11-10T23:12:33.107Z,102031.00
2022-11-10T23:22:52.140Z,102033.00
2022-11-10T23:33:11.052Z,102033.00
2022-11-10T23:43:30.195Z,102036.00
2022-11-10T23:53:49.151Z,102033.00
